Wichita Mid Continent Airport
KICT : now visible

Airfield :











YOU CAN JOIN US ON...

 
LOGIN :

Register | Disclaimer

   EN    FR    IT 

 









Legend :    VFR   Marginal VFR   IFR   Intensive IFR   Very Intensive IFR
Visi :
Ceiling :
>= 8 km
>= 3000ft
5 to 8 km
1000 to 3000 ft
1500m to 5 km
500 to 1000 ft
800 to 1500m
200 to 500 ft
< 800m
< 200 ft
Symbols :   Thunderstorms  Fog  Heavy snow  Heavy precipitations  Wind > 20 kt






- Airport Elevation : 1333 ft
- IATA code : ICT


KICT - Wichita Mid Continent

CURRENT METAR :
  • 261453Z 12004KT 10SM BKN019 22/18 A2957 RMK AO2 SLP001 T02220178 51007 $

EXPIRED METARs :
  • 261430Z 10006KT 10SM BKN021 22/17 A2957 RMK AO2 T02170172 $
  • 261416Z 11005KT 10SM SCT028 21/17 A2958 RMK AO2 T02110167 $
  • 261353Z 11012KT 10SM BKN026 20/16 A2956 RMK AO2 SLP002 T02000161 $
  • 261253Z 10014G20KT 10SM SCT027 SCT200 19/15 A2955 RMK AO2 SLP992 T01890150 $
  • 261200Z 08011KT 10SM BKN027 BKN200 18/16 A2956 RMK AO2 T01830156 $
  • 261153Z 08012KT 10SM SCT035 SCT090 SCT200 18/15 A2956 RMK AO2 SLP996 60000 70046 T01830150 10217 20178 51029 $
  • 261053Z COR 08013G22KT 10SM FEW030 FEW250 18/16 A2954 RMK AO2 RAE02 SLP988 CB DSNT SE MOV SE P0000 T01780156 $

TAF KICT
Valid from the 26 at 15:00 until the 27 at 12:00 UTC


261435Z 2615/2712 10006KT P6SM BKN021
FM261600 30013KT P6SM SCT090
FM270200 34009KT P6SM FEW220
KZKC FIR / North America



MET'MAP, your aeronautical weather chart ! - Copyright ORBIFLY December 2007 - Disclaimer

ORBIFLY MET'MAP TEAM :

Programming & Development : Alexandra Zaïnal
Original concept : Baudouin d'Aumeries
Technical & hardware support : Manuel Goepfert
Assistance : Marc-Olivier Méhu




SOURCES & CREDITS :

   NOAA       Earth
Advisory